Avondale, Pennsylvania
Current Conditions -  °F | °C
As of 12:55 PM on Friday 31 Oct 2014 (Local Time) from KMQS Reporting Station
Clear Clear  
Wind Chill: 50°   Ceiling: Unl
Heat Index: 50°   Visibility: 10mi
Dew Point: 36°   Wind: 5mph
Humidity: 58%   Direction: 60°ENE
Pressure: 29.94"   Gusts: NA
Location:  39.82°N, 75.78°W
Report Text: KMQS 311655Z AUTO 06004KT 10SM CLR 10/02 A2994 RMK AO2
Loading
Personal Weather Stations






























Interactive Weather Map
Tropical Storm Tracking
New forecast layout! Learn more

10-Day Weather Forecast

Advertisements
Track Severe Weather on mobile